Time;durP1;ratioP1;P1;durP2;ratioP2;P2;SDS_P1;SDS_P2;PMS_P1;PMS_P2;Temp;Humidity;BMP_temperature;BMP_pressure;BME280_temperature;BME280_humidity;BME280_pressure;Samples;Min_cycle;Max_cycle;Signal;HPM_P1;HPM_P2
2022/04/29 00:00:24;;;;;;;12.27;7.55;;;8.10;99.90;;;;;;5079494;28;20232;-81
2022/04/29 00:02:53;;;;;;;18.25;9.95;;;8.00;99.90;;;;;;5083468;28;20202;-82
2022/04/29 00:05:20;;;;;;;12.02;5.95;;;8.00;99.90;;;;;;5083249;28;20233;-81
2022/04/29 00:07:47;;;;;;;15.23;7.70;;;8.00;99.90;;;;;;5074412;28;20222;-83
2022/04/29 00:10:16;;;;;;;17.80;6.50;;;8.10;99.90;;;;;;5070381;28;20801;-82
2022/04/29 00:12:47;;;;;;;17.08;8.82;;;8.10;99.90;;;;;;5079606;28;20205;-82
2022/04/29 00:15:15;;;;;;;11.13;6.43;;;8.20;99.90;;;;;;5073461;28;20245;-81
2022/04/29 00:17:43;;;;;;;10.73;6.70;;;8.20;99.90;;;;;;5086401;28;20268;-82
2022/04/29 00:20:11;;;;;;;11.40;6.15;;;8.20;99.90;;;;;;5083296;28;20209;-83
2022/04/29 00:22:38;;;;;;;15.68;8.18;;;8.20;99.90;;;;;;5076448;28;20196;-82
2022/04/29 00:25:07;;;;;;;14.43;7.10;;;8.20;99.90;;;;;;5082995;28;20223;-83
2022/04/29 00:27:34;;;;;;;13.13;7.28;;;8.20;99.90;;;;;;5084642;28;20207;-83
2022/04/29 00:30:02;;;;;;;12.90;8.00;;;8.20;99.90;;;;;;5083329;28;20605;-81
2022/04/29 00:32:29;;;;;;;13.00;6.15;;;8.20;99.90;;;;;;5084591;28;20299;-82
2022/04/29 00:34:56;;;;;;;16.33;7.38;;;8.20;99.90;;;;;;5085327;28;20317;-83
2022/04/29 00:37:23;;;;;;;15.77;7.05;;;8.20;99.90;;;;;;5079218;28;20686;-81
2022/04/29 00:39:50;;;;;;;26.77;7.25;;;8.20;99.90;;;;;;5066978;28;20366;-82
2022/04/29 00:42:19;;;;;;;13.75;6.45;;;8.20;99.90;;;;;;5079036;28;20248;-83
2022/04/29 00:44:46;;;;;;;10.88;7.07;;;8.20;99.90;;;;;;5075785;28;20340;-81
2022/04/29 00:47:17;;;;;;;25.42;8.60;;;8.20;99.90;;;;;;5074794;28;20269;-82
2022/04/29 00:49:45;;;;;;;11.70;8.10;;;8.20;99.90;;;;;;5073217;28;20254;-82
2022/04/29 00:52:14;;;;;;;9.20;7.10;;;8.30;99.90;;;;;;5074662;28;20210;-82
2022/04/29 00:54:43;;;;;;;15.57;9.15;;;8.40;99.90;;;;;;5082472;28;20275;-83
2022/04/29 00:57:15;;;;;;;14.65;8.55;;;8.20;99.90;;;;;;5084350;28;20273;-83
2022/04/29 00:59:58;;;;;;;21.65;8.15;;;8.20;99.90;;;;;;5075030;28;20225;-82
2022/04/29 01:02:27;;;;;;;11.93;7.75;;;8.20;99.90;;;;;;5091195;28;20213;-81
2022/04/29 01:05:05;;;;;;;14.15;8.07;;;8.20;99.90;;;;;;5098625;28;20256;-82
2022/04/29 01:07:34;;;;;;;10.25;7.80;;;8.10;99.90;;;;;;5087610;28;20250;-82
2022/04/29 01:10:01;;;;;;;16.67;10.23;;;8.10;99.90;;;;;;5081679;28;20209;-82
2022/04/29 01:12:31;;;;;;;14.88;8.70;;;8.20;99.90;;;;;;5081478;28;20202;-80
2022/04/29 01:15:06;;;;;;;18.65;8.07;;;8.10;99.90;;;;;;5078401;28;20291;-83
2022/04/29 01:17:38;;;;;;;19.00;8.68;;;8.20;99.90;;;;;;5076188;28;20230;-82
2022/04/29 01:20:07;;;;;;;15.43;7.05;;;8.00;99.90;;;;;;5081108;28;20233;-83
2022/04/29 01:22:38;;;;;;;17.42;8.52;;;8.00;99.90;;;;;;5093670;28;20229;-82
2022/04/29 01:25:06;;;;;;;11.63;8.15;;;8.00;99.90;;;;;;5087428;28;20284;-81
2022/04/29 01:27:33;;;;;;;15.68;7.93;;;8.10;99.90;;;;;;5087178;28;20200;-81
2022/04/29 01:30:04;;;;;;;10.52;7.78;;;8.00;99.90;;;;;;5087345;28;20239;-81
2022/04/29 01:32:35;;;;;;;18.90;9.13;;;8.00;99.90;;;;;;5077772;28;20269;-81
2022/04/29 01:35:06;;;;;;;19.23;9.27;;;8.00;99.90;;;;;;5086650;28;20259;-82
2022/04/29 01:37:36;;;;;;;17.08;8.45;;;8.00;99.90;;;;;;5081514;28;20231;-81
2022/04/29 01:40:09;;;;;;;18.85;9.35;;;8.10;99.90;;;;;;5082046;28;20198;-83
2022/04/29 01:42:37;;;;;;;20.45;9.02;;;8.00;99.90;;;;;;5085927;28;20207;-82
2022/04/29 01:45:04;;;;;;;18.42;10.48;;;7.90;99.90;;;;;;5084416;28;20233;-81
2022/04/29 01:47:34;;;;;;;30.10;10.25;;;7.90;99.90;;;;;;5077702;28;20266;-82
2022/04/29 01:50:04;;;;;;;14.02;8.95;;;7.90;99.90;;;;;;5079546;28;20298;-81
2022/04/29 01:52:34;;;;;;;16.88;8.80;;;8.10;99.90;;;;;;5084398;28;20288;-82
2022/04/29 01:55:03;;;;;;;15.65;9.35;;;7.90;99.90;;;;;;5074878;28;20222;-81
2022/04/29 01:57:35;;;;;;;19.38;9.15;;;7.80;99.90;;;;;;5073965;28;20205;-83
2022/04/29 02:00:06;;;;;;;18.13;9.75;;;7.80;99.90;;;;;;5076455;28;20210;-83
2022/04/29 02:02:33;;;;;;;22.85;10.25;;;7.80;99.90;;;;;;5076968;28;20226;-80
2022/04/29 02:04:59;;;;;;;13.27;8.25;;;7.80;99.90;;;;;;5083239;28;20251;-82
2022/04/29 02:07:26;;;;;;;13.35;9.75;;;7.80;99.90;;;;;;5075657;28;20654;-81
2022/04/29 02:09:56;;;;;;;19.52;10.20;;;7.80;99.90;;;;;;5081588;28;20235;-83
2022/04/29 02:12:26;;;;;;;22.50;9.25;;;7.80;99.90;;;;;;5082724;28;20205;-81
2022/04/29 02:14:58;;;;;;;11.65;8.00;;;7.80;99.90;;;;;;5081708;28;20245;-79
2022/04/29 02:17:25;;;;;;;15.40;7.93;;;7.80;99.90;;;;;;5073991;28;20201;-80
2022/04/29 02:19:55;;;;;;;22.10;8.77;;;7.80;99.90;;;;;;5081635;28;20296;-82
2022/04/29 02:22:25;;;;;;;18.85;10.30;;;7.70;99.90;;;;;;5072179;28;20206;-80
2022/04/29 02:24:54;;;;;;;18.00;8.20;;;7.70;99.90;;;;;;5081741;28;20280;-78
2022/04/29 02:27:23;;;;;;;11.15;8.05;;;7.90;99.90;;;;;;5086980;28;20224;-81
2022/04/29 02:29:50;;;;;;;14.95;9.02;;;7.70;99.90;;;;;;5082029;28;20214;-80
2022/04/29 02:32:19;;;;;;;19.13;9.38;;;7.80;99.90;;;;;;5081595;28;20237;-80
2022/04/29 02:34:45;;;;;;;13.55;7.95;;;7.70;99.90;;;;;;5097330;28;20217;-81
2022/04/29 02:37:15;;;;;;;21.13;9.63;;;7.70;99.90;;;;;;5092598;28;20273;-80
2022/04/29 02:39:45;;;;;;;19.13;8.25;;;7.70;99.90;;;;;;5090114;28;20223;-81
2022/04/29 02:42:15;;;;;;;14.88;9.82;;;7.60;99.90;;;;;;5089022;28;20204;-80
2022/04/29 02:44:43;;;;;;;13.18;9.20;;;7.60;99.90;;;;;;5091198;28;20211;-81
2022/04/29 02:47:13;;;;;;;12.52;9.25;;;7.60;99.90;;;;;;5090971;28;20220;-80
2022/04/29 02:49:47;;;;;;;12.82;8.35;;;7.60;99.90;;;;;;5082100;28;20229;-80
2022/04/29 02:52:15;;;;;;;12.80;6.82;;;7.80;99.90;;;;;;5092003;28;20271;-79
2022/04/29 02:54:42;;;;;;;17.70;7.95;;;7.80;99.90;;;;;;5091773;28;20204;-80
2022/04/29 02:57:09;;;;;;;14.13;8.60;;;7.80;99.90;;;;;;5083865;28;20226;-81
2022/04/29 02:59:36;;;;;;;14.35;9.07;;;7.80;99.90;;;;;;5071635;28;20193;-82
2022/04/29 03:02:04;;;;;;;16.83;8.88;;;7.80;99.90;;;;;;5085198;28;20268;-82
2022/04/29 03:04:33;;;;;;;15.55;8.43;;;7.80;99.90;;;;;;5077781;28;20198;-81
2022/04/29 03:07:05;;;;;;;13.07;7.80;;;7.90;99.90;;;;;;5074958;28;20206;-81
2022/04/29 03:09:35;;;;;;;17.67;8.45;;;7.90;99.90;;;;;;5073185;28;20217;-82
2022/04/29 03:12:05;;;;;;;14.38;8.35;;;7.90;99.90;;;;;;5076715;28;20197;-79
2022/04/29 03:14:35;;;;;;;13.25;8.15;;;7.80;99.90;;;;;;5071090;28;20212;-81
2022/04/29 03:17:05;;;;;;;15.07;9.25;;;7.80;99.90;;;;;;5097691;28;20209;-82
2022/04/29 03:19:34;;;;;;;14.80;9.32;;;7.70;99.90;;;;;;5098050;28;20204;-81
2022/04/29 03:22:05;;;;;;;14.15;9.25;;;7.70;99.90;;;;;;5098580;28;20231;-81
2022/04/29 03:24:35;;;;;;;17.67;9.15;;;7.60;99.90;;;;;;5098560;28;20177;-79
2022/04/29 03:27:06;;;;;;;20.23;9.63;;;7.60;99.90;;;;;;5098935;28;20189;-80
2022/04/29 03:29:35;;;;;;;16.30;9.85;;;7.60;99.90;;;;;;5098969;28;20202;-84
2022/04/29 03:32:06;;;;;;;15.40;9.30;;;7.50;99.90;;;;;;5098948;28;20192;-80
2022/04/29 03:34:33;;;;;;;16.80;9.43;;;7.50;99.90;;;;;;5098642;28;20175;-81
2022/04/29 03:37:00;;;;;;;16.80;9.73;;;7.60;99.90;;;;;;5098368;28;20188;-81
2022/04/29 03:39:28;;;;;;;18.50;9.43;;;7.60;99.90;;;;;;5098486;28;20216;-81
2022/04/29 03:41:55;;;;;;;18.88;9.75;;;7.50;99.90;;;;;;5097999;28;20185;-81
2022/04/29 03:44:25;;;;;;;13.52;9.90;;;7.50;99.90;;;;;;5097882;28;20186;-82
2022/04/29 03:46:55;;;;;;;15.50;10.63;;;7.50;99.90;;;;;;5098162;28;20204;-81
2022/04/29 03:49:39;;;;;;;20.25;10.02;;;7.50;99.90;;;;;;5096986;28;20214;-81
2022/04/29 03:52:07;;;;;;;16.30;10.60;;;7.60;99.90;;;;;;5097388;28;20173;-81
2022/04/29 03:54:35;;;;;;;13.32;10.18;;;7.60;99.90;;;;;;5097052;28;20207;-80
2022/04/29 03:57:04;;;;;;;17.67;9.50;;;7.60;99.90;;;;;;5093136;28;20294;-80
2022/04/29 03:59:33;;;;;;;17.67;8.93;;;7.60;99.90;;;;;;5096292;28;20275;-82
2022/04/29 04:02:00;;;;;;;16.25;9.77;;;7.60;99.90;;;;;;5094293;28;20188;-80
2022/04/29 04:04:26;;;;;;;15.82;8.60;;;7.50;99.90;;;;;;5093713;28;20234;-81
2022/04/29 04:07:00;;;;;;;14.68;8.30;;;7.50;99.90;;;;;;5091913;28;20240;-80
2022/04/29 04:09:27;;;;;;;15.73;7.80;;;7.50;99.90;;;;;;5086080;28;20320;-83
2022/04/29 04:11:56;;;;;;;23.45;9.95;;;7.50;99.90;;;;;;5087983;28;20221;-81
2022/04/29 04:14:26;;;;;;;16.35;9.63;;;7.60;99.90;;;;;;5088549;28;20201;-81
2022/04/29 04:16:56;;;;;;;19.40;9.77;;;7.60;99.90;;;;;;5086003;28;20338;-81
2022/04/29 04:19:26;;;;;;;18.23;9.95;;;7.60;99.90;;;;;;5078078;28;20245;-80
2022/04/29 04:21:56;;;;;;;16.38;9.20;;;7.60;99.90;;;;;;5081617;28;20212;-80
2022/04/29 04:24:25;;;;;;;19.90;8.38;;;7.60;99.90;;;;;;5079605;28;20216;-82
2022/04/29 04:26:52;;;;;;;14.25;8.07;;;7.60;99.90;;;;;;5079505;28;20240;-81
2022/04/29 04:29:20;;;;;;;12.88;8.52;;;7.70;99.90;;;;;;5089013;28;20208;-81
2022/04/29 04:31:47;;;;;;;15.68;9.55;;;7.70;99.90;;;;;;5089999;28;20224;-83
2022/04/29 04:36:59;;;;;;;18.55;9.82;;;7.80;99.90;;;;;;5078254;28;20228;-81
2022/04/29 04:39:49;;;;;;;12.57;7.95;;;7.80;99.90;;;;;;5093062;28;20196;-83
2022/04/29 04:42:17;;;;;;;13.60;8.63;;;7.90;99.90;;;;;;5078068;28;20171;-82
2022/04/29 04:44:47;;;;;;;14.52;9.02;;;8.00;99.90;;;;;;5092788;28;20208;-83
2022/04/29 04:47:14;;;;;;;16.25;9.02;;;8.00;99.90;;;;;;5077800;28;20199;-82
2022/04/29 04:49:41;;;;;;;14.40;9.50;;;8.00;99.90;;;;;;5077674;28;20224;-82
2022/04/29 04:52:08;;;;;;;14.38;9.05;;;8.00;99.90;;;;;;5077858;28;20186;-82
2022/04/29 04:54:35;;;;;;;16.58;9.30;;;8.10;99.90;;;;;;5083063;28;20212;-83
2022/04/29 04:57:03;;;;;;;16.00;9.02;;;8.20;99.90;;;;;;5101149;28;20183;-82
2022/04/29 04:59:29;;;;;;;15.27;9.77;;;8.20;99.90;;;;;;5100776;28;20261;-82
2022/04/29 05:01:58;;;;;;;10.90;7.30;;;8.30;99.90;;;;;;5090413;28;20205;-82
2022/04/29 05:04:25;;;;;;;14.18;8.65;;;8.40;99.90;;;;;;5088797;28;20209;-81
2022/04/29 05:06:52;;;;;;;13.73;8.85;;;8.50;99.90;;;;;;5069064;28;20293;-80
2022/04/29 05:09:19;;;;;;;13.32;8.30;;;8.60;99.90;;;;;;5071310;28;20361;-80
2022/04/29 05:11:46;;;;;;;10.90;9.00;;;8.70;99.90;;;;;;5081373;28;20289;-78
2022/04/29 05:14:13;;;;;;;15.07;8.95;;;8.90;99.90;;;;;;5077058;28;20271;-80
2022/04/29 05:16:40;;;;;;;16.33;8.90;;;9.00;99.90;;;;;;5079633;28;20219;-82
2022/04/29 05:19:08;;;;;;;10.57;8.40;;;9.20;99.90;;;;;;5079907;28;20230;-82
2022/04/29 05:21:35;;;;;;;13.75;9.00;;;9.20;99.90;;;;;;5076156;28;20256;-80
2022/04/29 05:24:02;;;;;;;12.98;8.13;;;9.40;99.90;;;;;;5079872;28;20234;-83
2022/04/29 05:26:34;;;;;;;11.48;7.32;;;9.60;99.90;;;;;;5076398;28;20257;-83
2022/04/29 05:29:01;;;;;;;10.32;8.07;;;9.70;99.90;;;;;;5086114;28;20226;-79
2022/04/29 05:31:28;;;;;;;12.18;9.32;;;9.90;99.90;;;;;;5084480;28;20238;-79
2022/04/29 05:33:55;;;;;;;14.65;7.63;;;10.30;99.90;;;;;;5085324;28;20202;-79
2022/04/29 05:36:24;;;;;;;14.15;7.25;;;10.60;99.90;;;;;;5075351;28;20227;-78
2022/04/29 05:44:19;;;;;;;17.67;6.55;;;12.40;99.90;;;;;;5097273;28;20196;-78
2022/04/29 05:46:46;;;;;;;9.30;6.90;;;13.10;99.90;;;;;;5097916;28;20199;-79
2022/04/29 05:49:13;;;;;;;9.82;6.68;;;14.20;99.90;;;;;;5089666;28;20262;-80
2022/04/29 05:51:41;;;;;;;8.48;5.50;;;15.00;99.90;;;;;;5088075;28;20238;-78
2022/04/29 05:54:08;;;;;;;9.43;6.63;;;15.40;99.90;;;;;;5090133;28;20207;-79
2022/04/29 05:56:35;;;;;;;10.70;6.53;;;15.80;99.20;;;;;;5089442;28;20224;-78
2022/04/29 05:59:02;;;;;;;11.80;6.85;;;15.80;98.60;;;;;;5083027;28;20242;-79
2022/04/29 06:01:29;;;;;;;25.63;6.13;;;16.10;96.90;;;;;;5085425;28;20204;-79
2022/04/29 06:03:55;;;;;;;11.02;6.30;;;16.00;96.20;;;;;;5068196;28;20237;-79
2022/04/29 06:06:22;;;;;;;15.43;7.22;;;16.20;95.30;;;;;;5085901;28;20223;-79
2022/04/29 06:08:50;;;;;;;8.32;5.88;;;15.70;95.90;;;;;;5076656;28;20207;-78
2022/04/29 06:11:17;;;;;;;7.82;5.68;;;15.30;96.50;;;;;;5073905;28;20922;-79
2022/04/29 06:13:44;;;;;;;10.50;5.50;;;15.00;98.00;;;;;;5076305;28;20207;-80
2022/04/29 06:16:11;;;;;;;12.55;6.45;;;14.90;97.20;;;;;;5078198;28;20254;-81
2022/04/29 06:18:38;;;;;;;8.50;6.35;;;14.70;97.70;;;;;;5080126;28;20200;-81
2022/04/29 06:21:05;;;;;;;9.48;5.15;;;14.80;98.10;;;;;;5085333;28;20198;-80
2022/04/29 06:23:32;;;;;;;8.60;5.75;;;14.80;97.50;;;;;;5082758;28;20209;-83
2022/04/29 06:26:01;;;;;;;10.45;5.68;;;15.00;97.10;;;;;;5085002;28;20230;-82
2022/04/29 06:28:27;;;;;;;8.10;5.00;;;15.10;96.80;;;;;;5091127;28;20332;-81
2022/04/29 06:30:55;;;;;;;10.02;6.00;;;15.20;96.90;;;;;;5083537;28;20705;-84
2022/04/29 06:33:22;;;;;;;6.63;5.03;;;15.30;96.00;;;;;;5077412;28;20204;-82
2022/04/29 06:35:49;;;;;;;8.82;5.25;;;15.40;95.60;;;;;;5078344;28;20229;-81
2022/04/29 06:38:17;;;;;;;8.50;5.32;;;15.60;95.20;;;;;;5080959;28;20221;-83
2022/04/29 06:40:44;;;;;;;10.32;5.63;;;15.70;95.10;;;;;;5078027;28;20222;-84
2022/04/29 06:43:12;;;;;;;5.72;4.60;;;16.30;94.60;;;;;;5074953;28;21032;-82
2022/04/29 06:45:39;;;;;;;7.70;4.40;;;17.00;92.60;;;;;;5081543;28;20266;-83
2022/04/29 06:48:07;;;;;;;8.63;4.53;;;17.80;90.50;;;;;;5077687;28;20531;-82
2022/04/29 06:50:33;;;;;;;5.20;3.60;;;18.30;89.30;;;;;;5078062;28;20840;-83
2022/04/29 06:53:00;;;;;;;5.33;3.33;;;18.70;87.00;;;;;;5076759;28;20537;-82
2022/04/29 06:55:27;;;;;;;5.90;3.70;;;18.50;85.10;;;;;;5077685;28;21002;-80
2022/04/29 06:57:54;;;;;;;12.87;4.40;;;18.40;85.00;;;;;;5075828;28;20453;-83
2022/04/29 07:00:23;;;;;;;8.97;5.13;;;18.30;85.10;;;;;;5067173;28;20442;-83
2022/04/29 07:02:51;;;;;;;5.20;3.90;;;18.60;84.40;;;;;;5075065;28;20446;-82
2022/04/29 07:05:19;;;;;;;9.40;4.40;;;18.80;84.30;;;;;;5080975;28;20477;-83
2022/04/29 07:07:49;;;;;;;6.23;3.10;;;19.40;83.80;;;;;;5088332;28;20463;-84
2022/04/29 07:10:16;;;;;;;7.43;4.40;;;20.10;81.00;;;;;;5079195;28;20488;-84
2022/04/29 07:12:44;;;;;;;5.77;3.30;;;20.70;79.40;;;;;;5088948;28;20522;-85
2022/04/29 07:15:13;;;;;;;10.90;4.63;;;21.20;77.00;;;;;;5087683;28;20591;-83
2022/04/29 07:17:42;;;;;;;7.30;3.50;;;21.80;74.40;;;;;;5074772;28;20442;-84
2022/04/29 07:20:10;;;;;;;4.17;3.67;;;22.30;73.20;;;;;;5074870;28;20476;-83
2022/04/29 07:22:38;;;;;;;8.30;3.20;;;23.10;70.60;;;;;;5081620;28;20524;-83
2022/04/29 07:25:06;;;;;;;4.90;3.80;;;23.00;69.40;;;;;;5077578;28;20508;-84
2022/04/29 07:27:33;;;;;;;7.43;4.43;;;23.30;68.90;;;;;;5076423;28;20446;-82
2022/04/29 07:30:00;;;;;;;5.70;3.80;;;23.80;67.40;;;;;;5076845;28;20446;-83
2022/04/29 07:32:27;;;;;;;5.53;2.90;;;23.70;66.80;;;;;;5074383;28;20238;-82
2022/04/29 07:43:13;;;;;;;7.20;2.83;;;24.40;64.10;;;;;;5078780;28;20440;-84
2022/04/29 07:45:42;;;;;;;5.43;2.67;;;24.60;62.60;;;;;;5085452;28;20488;-80
2022/04/29 07:48:09;;;;;;;6.00;3.47;;;23.90;62.60;;;;;;5088502;28;20436;-82
2022/04/29 07:50:48;;;;;;;5.40;3.40;;;23.80;62.80;;;;;;5089075;28;20537;-82
2022/04/29 07:53:16;;;;;;;5.40;3.50;;;23.90;63.20;;;;;;5081198;28;20422;-84
2022/04/29 07:55:43;;;;;;;6.97;3.00;;;24.40;62.30;;;;;;5068046;28;20552;-83
2022/04/29 07:58:10;;;;;;;6.10;3.00;;;24.60;62.30;;;;;;5085836;28;20515;-85
2022/04/29 08:00:38;;;;;;;11.70;3.23;;;25.00;60.40;;;;;;5083589;28;20861;-84
2022/04/29 08:03:06;;;;;;;10.43;2.97;;;25.20;60.00;;;;;;5088563;28;20559;-84
2022/04/29 08:05:33;;;;;;;6.37;2.90;;;24.80;60.40;;;;;;5086082;28;20511;-83
2022/04/29 08:08:02;;;;;;;5.50;2.60;;;23.90;61.10;;;;;;5087201;28;20441;-83
2022/04/29 08:10:31;;;;;;;5.40;2.93;;;23.30;62.20;;;;;;5089704;28;20492;-83
2022/04/29 08:12:59;;;;;;;5.93;3.00;;;22.70;64.00;;;;;;5088993;28;20430;-84
2022/04/29 08:15:27;;;;;;;8.10;3.57;;;21.60;63.90;;;;;;5092619;28;20495;-84
2022/04/29 08:17:54;;;;;;;5.93;3.33;;;20.90;66.20;;;;;;5094309;28;20501;-83
2022/04/29 08:20:21;;;;;;;6.47;3.43;;;20.40;67.10;;;;;;5091440;28;20467;-83
2022/04/29 08:22:48;;;;;;;9.80;4.17;;;19.80;69.70;;;;;;5077482;28;20474;-83
2022/04/29 08:25:19;;;;;;;8.33;3.07;;;19.40;71.90;;;;;;5081672;28;20462;-81
2022/04/29 08:27:47;;;;;;;4.30;3.60;;;19.60;72.30;;;;;;5078542;28;20520;-81
2022/04/29 08:30:14;;;;;;;5.63;3.83;;;19.80;73.30;;;;;;5087784;28;21462;-82
2022/04/29 08:32:43;;;;;;;6.47;3.50;;;20.40;71.70;;;;;;5097683;28;20452;-83
2022/04/29 08:35:11;;;;;;;6.33;3.10;;;21.00;70.00;;;;;;5096559;28;20561;-83
2022/04/29 08:37:38;;;;;;;6.57;4.20;;;21.20;69.10;;;;;;5076750;28;20454;-82
2022/04/29 08:40:06;;;;;;;5.50;3.57;;;21.60;68.60;;;;;;5072714;28;20516;-83
2022/04/29 08:42:37;;;;;;;6.40;3.13;;;21.40;68.00;;;;;;5079209;28;20532;-83
2022/04/29 08:45:10;;;;;;;4.90;3.00;;;21.20;69.10;;;;;;5088827;28;20544;-84
2022/04/29 08:47:39;;;;;;;4.43;2.10;;;21.30;69.00;;;;;;5075750;28;20428;-83
2022/04/29 08:50:08;;;;;;;3.97;2.20;;;22.00;67.80;;;;;;5093761;28;20449;-83
2022/04/29 08:52:36;;;;;;;4.90;2.63;;;22.10;65.60;;;;;;5085689;28;20469;-84
2022/04/29 09:00:38;;;;;;;5.30;3.57;;;21.10;66.50;;;;;;5080662;28;20434;-82
2022/04/29 09:03:07;;;;;;;2.77;2.13;;;20.30;68.20;;;;;;5077041;28;20449;-81
2022/04/29 09:05:34;;;;;;;7.60;3.60;;;19.40;68.80;;;;;;5079112;28;20466;-82
2022/04/29 09:08:02;;;;;;;5.80;2.20;;;18.70;71.00;;;;;;5083753;28;20445;-83
2022/04/29 09:10:33;;;;;;;4.13;2.60;;;18.50;72.00;;;;;;5086985;28;20460;-81
2022/04/29 09:13:13;;;;;;;5.73;2.60;;;18.50;73.50;;;;;;5092320;28;20448;-81
2022/04/29 09:15:50;;;;;;;5.27;3.47;;;18.60;73.30;;;;;;5095047;28;20465;-80
2022/04/29 09:18:34;;;;;;;8.20;4.40;;;18.80;74.30;;;;;;5094497;28;20538;-80
2022/04/29 09:21:07;;;;;;;6.67;4.00;;;19.00;74.30;;;;;;5097894;28;20441;-82
2022/04/29 09:23:35;;;;;;;7.10;2.90;;;19.10;74.70;;;;;;5094621;28;20449;-82
2022/04/29 09:26:07;;;;;;;4.73;2.40;;;19.60;74.00;;;;;;5094504;28;20541;-80
2022/04/29 09:28:36;;;;;;;8.03;2.50;;;20.10;72.00;;;;;;5085244;28;20450;-79
2022/04/29 09:31:04;;;;;;;5.97;2.30;;;20.70;70.30;;;;;;5080609;28;20472;-80
2022/04/29 09:33:35;;;;;;;4.60;2.30;;;21.00;67.50;;;;;;5084563;28;20438;-79
2022/04/29 09:36:03;;;;;;;3.83;2.57;;;20.80;68.00;;;;;;5087781;28;20547;-80
2022/04/29 09:41:24;;;;;;;5.13;2.20;;;20.20;66.20;;;;;;5079319;28;20462;-81
2022/04/29 09:43:55;;;;;;;4.83;2.47;;;19.60;67.20;;;;;;5081137;28;20458;-84
2022/04/29 09:46:23;;;;;;;6.23;2.10;;;19.60;67.90;;;;;;5084414;28;20473;-82
2022/04/29 09:49:02;;;;;;;4.10;2.40;;;19.60;68.70;;;;;;5080114;28;20477;-82
2022/04/29 09:51:41;;;;;;;3.07;1.60;;;19.70;68.50;;;;;;5083578;28;20816;-80
2022/04/29 09:54:13;;;;;;;3.53;1.60;;;19.90;68.00;;;;;;5080839;28;20472;-81
2022/04/29 09:56:40;;;;;;;5.53;1.90;;;19.90;66.30;;;;;;5069510;28;20466;-79
2022/04/29 09:59:09;;;;;;;3.10;1.93;;;19.70;66.00;;;;;;5073243;28;20538;-80
2022/04/29 10:01:36;;;;;;;8.00;2.13;;;19.80;67.90;;;;;;5075242;28;20445;-81
2022/04/29 10:04:03;;;;;;;3.40;2.03;;;19.80;69.00;;;;;;5080054;28;20514;-81
2022/04/29 10:06:33;;;;;;;3.67;2.00;;;19.80;68.70;;;;;;5079582;28;20469;-80
2022/04/29 10:09:01;;;;;;;4.13;2.67;;;20.00;68.90;;;;;;5084537;28;20528;-82
2022/04/29 10:11:29;;;;;;;5.03;2.50;;;20.20;69.50;;;;;;5079297;28;20916;-79
2022/04/29 10:14:01;;;;;;;6.90;2.47;;;20.60;69.80;;;;;;5077190;28;20568;-80
2022/04/29 10:16:33;;;;;;;3.40;2.50;;;20.80;69.20;;;;;;5085054;28;20531;-80
2022/04/29 10:21:50;;;;;;;3.27;2.17;;;21.00;68.10;;;;;;5083066;28;20435;-80
2022/04/29 10:24:17;;;;;;;4.70;2.13;;;21.30;67.40;;;;;;5077765;28;20461;-81
2022/04/29 10:26:45;;;;;;;3.43;2.33;;;21.10;65.80;;;;;;5082604;28;20453;-80
2022/04/29 10:29:12;;;;;;;6.13;1.93;;;20.80;66.10;;;;;;5078125;28;20445;-82
2022/04/29 10:31:41;;;;;;;5.37;1.80;;;20.90;66.70;;;;;;5080815;28;20524;-79
2022/04/29 10:34:29;;;;;;;7.47;3.40;;;20.50;67.30;;;;;;5086156;28;20472;-80
2022/04/29 10:36:58;;;;;;;4.07;2.67;;;20.10;68.30;;;;;;5073538;28;20440;-80
2022/04/29 10:39:25;;;;;;;4.77;2.90;;;20.10;68.30;;;;;;5066345;28;20545;-80
2022/04/29 10:41:59;;;;;;;10.07;2.90;;;20.10;68.70;;;;;;5082220;28;20485;-80
2022/04/29 10:44:26;;;;;;;5.50;2.43;;;20.10;68.30;;;;;;5080038;28;20456;-80
2022/04/29 10:46:54;;;;;;;3.40;2.10;;;20.30;68.10;;;;;;5086728;28;20418;-81
2022/04/29 10:49:28;;;;;;;6.67;2.30;;;20.30;67.50;;;;;;5076462;28;20841;-82
2022/04/29 10:51:56;;;;;;;6.17;2.80;;;20.00;68.40;;;;;;5090001;28;20998;-80
2022/04/29 10:54:46;;;;;;;6.50;3.00;;;20.20;67.60;;;;;;5079899;28;20514;-81
2022/04/29 10:57:14;;;;;;;6.03;2.80;;;20.20;68.20;;;;;;5082743;28;20928;-81
2022/04/29 10:59:52;;;;;;;6.27;2.60;;;20.20;68.40;;;;;;5083626;28;20480;-82
2022/04/29 11:02:38;;;;;;;5.80;3.10;;;20.20;68.30;;;;;;5091101;28;20451;-79
2022/04/29 11:05:07;;;;;;;7.33;2.50;;;19.90;67.60;;;;;;5093228;28;20450;-82
2022/04/29 11:07:43;;;;;;;2.93;1.90;;;20.00;67.70;;;;;;5092103;28;20465;-80
2022/04/29 11:10:12;;;;;;;4.43;3.30;;;20.40;67.20;;;;;;5092760;28;20437;-81
2022/04/29 11:12:40;;;;;;;6.43;4.83;;;20.60;66.10;;;;;;5084997;28;20511;-83
2022/04/29 11:15:13;;;;;;;4.83;2.37;;;20.80;65.80;;;;;;5089849;28;20528;-82
2022/04/29 11:17:42;;;;;;;4.60;2.77;;;20.90;65.30;;;;;;5087188;28;20444;-79
2022/04/29 11:20:17;;;;;;;4.47;2.90;;;20.90;64.40;;;;;;5084424;28;20518;-81
2022/04/29 11:25:54;;;;;;;6.00;2.93;;;20.70;64.40;;;;;;5079421;28;20464;-82
2022/04/29 11:28:22;;;;;;;4.63;2.93;;;20.50;65.60;;;;;;5081570;28;20436;-81
2022/04/29 11:30:51;;;;;;;3.90;2.83;;;20.60;65.60;;;;;;5085551;28;20448;-80
2022/04/29 11:33:26;;;;;;;5.90;2.60;;;20.30;67.50;;;;;;5092076;28;20478;-80
2022/04/29 11:36:00;;;;;;;3.80;2.77;;;20.00;67.20;;;;;;5087031;28;20531;-79
2022/04/29 11:38:27;;;;;;;3.97;3.13;;;19.90;68.00;;;;;;5086800;28;20445;-78
2022/04/29 11:40:54;;;;;;;5.63;2.60;;;19.90;68.30;;;;;;5089308;28;20502;-82
2022/04/29 11:43:24;;;;;;;5.63;2.90;;;19.90;67.40;;;;;;5096693;28;20448;-80
2022/04/29 11:46:01;;;;;;;5.10;3.17;;;20.10;67.90;;;;;;5096400;28;20474;-82
2022/04/29 11:48:30;;;;;;;6.00;3.23;;;20.10;67.30;;;;;;5091832;28;20441;-81
2022/04/29 11:50:58;;;;;;;6.30;4.07;;;20.10;67.70;;;;;;5094653;28;20441;-81
2022/04/29 11:53:26;;;;;;;11.30;4.60;;;20.10;68.30;;;;;;5078319;28;20469;-79
2022/04/29 11:55:54;;;;;;;5.40;3.27;;;20.00;68.00;;;;;;5073965;28;20457;-81
2022/04/29 11:58:20;;;;;;;4.73;2.93;;;19.60;68.20;;;;;;5076304;28;20453;-82
2022/04/29 12:00:54;;;;;;;6.67;3.47;;;19.70;68.90;;;;;;5090595;28;20443;-81
2022/04/29 12:03:22;;;;;;;5.07;4.50;;;19.60;69.00;;;;;;5092167;28;20487;-78
2022/04/29 12:05:51;;;;;;;4.53;3.23;;;19.30;69.40;;;;;;5075964;28;20907;-81
2022/04/29 12:08:18;;;;;;;7.67;5.10;;;19.20;69.70;;;;;;5089810;28;20443;-80
2022/04/29 12:10:47;;;;;;;5.67;3.30;;;19.20;71.10;;;;;;5086459;28;20733;-80
2022/04/29 12:13:14;;;;;;;10.47;3.50;;;19.30;68.70;;;;;;5082269;28;20560;-80
2022/04/29 12:15:42;;;;;;;8.83;5.67;;;19.30;70.10;;;;;;5095482;28;20476;-82
2022/04/29 12:18:11;;;;;;;3.53;3.23;;;19.20;70.20;;;;;;5095612;28;20480;-80
2022/04/29 12:20:39;;;;;;;5.50;2.90;;;18.90;70.50;;;;;;5091445;28;20437;-82
2022/04/29 12:23:11;;;;;;;5.03;2.67;;;18.60;71.20;;;;;;5094899;28;20425;-79
2022/04/29 12:25:42;;;;;;;4.23;2.73;;;18.90;71.60;;;;;;5095984;28;20453;-82
2022/04/29 12:28:20;;;;;;;6.00;2.83;;;18.70;70.90;;;;;;5092709;28;20461;-82
2022/04/29 12:36:48;;;;;;;5.97;3.83;;;18.20;72.90;;;;;;5095465;28;20525;-80
2022/04/29 12:39:21;;;;;;;5.53;3.90;;;18.40;73.30;;;;;;5081084;28;20443;-82
2022/04/29 12:42:01;;;;;;;6.73;4.30;;;18.30;72.70;;;;;;5080171;28;20454;-81
2022/04/29 12:47:24;;;;;;;4.33;3.77;;;18.50;72.90;;;;;;5084354;28;20453;-83
2022/04/29 12:49:51;;;;;;;10.43;4.50;;;18.50;72.80;;;;;;5092450;28;20470;-83
2022/04/29 12:52:18;;;;;;;9.80;4.23;;;18.50;73.40;;;;;;5088746;28;20529;-82
2022/04/29 12:54:47;;;;;;;6.50;4.00;;;18.50;73.60;;;;;;5086853;28;20526;-82
2022/04/29 12:57:14;;;;;;;7.63;4.30;;;18.40;73.80;;;;;;5092939;28;20441;-83
2022/04/29 12:59:41;;;;;;;5.10;3.80;;;18.50;73.50;;;;;;5093856;28;20477;-80
2022/04/29 13:02:08;;;;;;;4.07;3.60;;;18.60;73.40;;;;;;5091381;28;20437;-80
2022/04/29 13:04:36;;;;;;;6.87;4.53;;;18.70;73.00;;;;;;5081174;28;20473;-79
2022/04/29 13:07:04;;;;;;;8.50;3.60;;;18.90;73.20;;;;;;5079060;28;20451;-79
2022/04/29 13:09:32;;;;;;;7.63;4.27;;;18.90;72.30;;;;;;5092658;28;20442;-82
2022/04/29 13:12:00;;;;;;;5.67;4.33;;;18.60;73.10;;;;;;5089095;28;20469;-79
2022/04/29 13:14:27;;;;;;;5.50;3.47;;;18.50;73.90;;;;;;5082783;28;20449;-80
2022/04/29 13:16:55;;;;;;;4.27;3.43;;;18.70;74.30;;;;;;5082814;28;20480;-81
2022/04/29 13:19:22;;;;;;;7.77;4.20;;;18.90;72.90;;;;;;5070883;28;20464;-82
2022/04/29 13:21:49;;;;;;;5.17;4.27;;;19.10;72.10;;;;;;5079246;28;20465;-80
2022/04/29 13:24:15;;;;;;;10.33;5.60;;;18.60;72.10;;;;;;5087307;28;20800;-80
2022/04/29 13:26:42;;;;;;;6.20;4.70;;;18.40;72.80;;;;;;5085278;28;20519;-79
2022/04/29 13:29:12;;;;;;;9.00;3.90;;;18.20;73.10;;;;;;5070584;28;21024;-82
2022/04/29 13:31:40;;;;;;;3.87;2.93;;;18.20;73.40;;;;;;5069398;28;20453;-79
2022/04/29 13:34:07;;;;;;;5.43;4.20;;;18.10;74.10;;;;;;5068429;28;20554;-82